createdAt,value
2023-04-27T00:00:23.057Z,87227.25
2023-04-27T00:02:51.008Z,87228.72
2023-04-27T00:05:19.156Z,87230.97
2023-04-27T00:51:43.137Z,87215.03
2023-04-27T00:54:12.189Z,87219.94
2023-04-27T00:56:39.910Z,87224.44
2023-04-27T00:59:07.602Z,87221.09
2023-04-27T01:01:35.345Z,87215.44
2023-04-27T01:04:03.366Z,87213.56
2023-04-27T01:06:31.240Z,87218.78
2023-04-27T01:08:58.829Z,87216.16
2023-04-27T01:11:26.753Z,87215.78
2023-04-27T01:13:55.142Z,87215.78
2023-04-27T01:16:22.972Z,87212.00
2023-04-27T01:18:50.862Z,87216.88
2023-04-27T01:21:18.450Z,87220.19
2023-04-27T01:23:47.100Z,87223.19
2023-04-27T01:26:15.018Z,87223.56
2023-04-27T01:28:45.225Z,87228.03
2023-04-27T01:31:13.137Z,87223.53
2023-04-27T01:33:41.805Z,87223.09
2023-04-27T01:36:09.996Z,87223.09
2023-04-27T01:38:37.664Z,87224.97
2023-04-27T01:41:06.137Z,87221.16
2023-04-27T01:43:33.895Z,87226.78
2023-04-27T01:46:09.255Z,87244.38
2023-04-27T01:48:37.687Z,87231.97
2023-04-27T01:51:06.101Z,87230.13
2023-04-27T01:53:34.174Z,87235.72
2023-04-27T01:56:01.822Z,87231.91
2023-04-27T01:58:29.336Z,87234.50
2023-04-27T02:00:56.901Z,87233.41
2023-04-27T02:03:24.650Z,87223.59
2023-04-27T02:05:52.479Z,87228.84
2023-04-27T02:08:20.116Z,87232.25
2023-04-27T02:10:47.733Z,87232.97
2023-04-27T02:13:15.281Z,87235.97
2023-04-27T02:15:43.133Z,87229.94
2023-04-27T02:18:10.814Z,87235.56
2023-04-27T02:20:38.405Z,87244.50
2023-04-27T02:23:06.003Z,87237.00
2023-04-27T02:25:36.074Z,87247.09
2023-04-27T02:28:03.739Z,87237.34
2023-04-27T02:30:31.866Z,87236.19
2023-04-27T02:33:00.574Z,87236.94
2023-04-27T02:35:28.482Z,87232.06
2023-04-27T02:37:56.008Z,87241.81
2023-04-27T02:40:23.545Z,87232.84
2023-04-27T02:42:51.169Z,87233.91
2023-04-27T02:45:18.798Z,87238.69
2023-04-27T02:47:46.392Z,87237.94
2023-04-27T02:50:13.993Z,87246.56
2023-04-27T02:52:41.594Z,87248.03
2023-04-27T02:55:09.410Z,87251.06
2023-04-27T02:57:36.880Z,87250.66
2023-04-27T03:00:05.520Z,87251.78
2023-04-27T03:02:33.391Z,87247.25
2023-04-27T03:05:01.044Z,87246.88
2023-04-27T03:07:28.566Z,87230.41
2023-04-27T03:09:56.100Z,87233.06
2023-04-27T03:12:23.824Z,87236.78
2023-04-27T03:14:51.341Z,87241.28
2023-04-27T03:17:18.906Z,87242.75
2023-04-27T03:19:48.393Z,87243.81
2023-04-27T03:22:16.042Z,87251.59
2023-04-27T03:24:43.709Z,87245.59
2023-04-27T03:27:11.386Z,87254.91
2023-04-27T03:29:39.177Z,87249.66
2023-04-27T03:32:08.258Z,87251.41
2023-04-27T03:34:35.970Z,87258.88
2023-04-27T03:37:03.556Z,87257.72
2023-04-27T03:39:31.089Z,87261.78
2023-04-27T03:41:58.680Z,87260.31
2023-04-27T03:44:26.254Z,87263.25
2023-04-27T03:46:53.806Z,87269.88
2023-04-27T03:49:22.360Z,87276.63
2023-04-27T03:51:50.022Z,87266.09
2023-04-27T03:54:17.727Z,87269.38
2023-04-27T03:56:45.264Z,87270.06
2023-04-27T03:59:13.332Z,87260.34
2023-04-27T04:01:42.078Z,87261.09
2023-04-27T04:04:09.920Z,87263.31
2023-04-27T04:06:37.534Z,87270.84
2023-04-27T04:09:05.121Z,87268.94
2023-04-27T04:11:32.669Z,87272.69
2023-04-27T04:14:00.370Z,87271.91
2023-04-27T04:16:28.076Z,87275.22
2023-04-27T04:18:55.716Z,87290.56
2023-04-27T04:21:23.240Z,87279.28
2023-04-27T04:23:50.788Z,87286.75
2023-04-27T04:26:18.061Z,87290.06
2023-04-27T04:28:45.222Z,87298.28
2023-04-27T04:31:12.489Z,87289.22
2023-04-27T04:33:39.677Z,87294.50
2023-04-27T04:36:07.318Z,87291.09
2023-04-27T04:38:34.636Z,87285.88
2023-04-27T04:41:01.845Z,87295.94
2023-04-27T04:43:29.133Z,87294.44
2023-04-27T04:45:56.344Z,87303.03
2023-04-27T04:48:23.533Z,87300.03
2023-04-27T04:50:50.719Z,87296.63
2023-04-27T04:53:17.908Z,87298.84
2023-04-27T04:55:45.205Z,87298.84
2023-04-27T04:58:12.561Z,87300.66
2023-04-27T05:00:39.785Z,87299.25
2023-04-27T05:03:07.010Z,87304.22
2023-04-27T05:05:34.198Z,87311.38
2023-04-27T05:08:01.396Z,87314.81
2023-04-27T05:10:28.836Z,87314.13
2023-04-27T05:12:56.089Z,87318.19
2023-04-27T05:15:23.463Z,87308.16
2023-04-27T05:17:50.713Z,87299.47
2023-04-27T05:20:18.184Z,87309.28
2023-04-27T05:22:45.509Z,87311.50
2023-04-27T05:25:12.787Z,87319.75
2023-04-27T05:27:40.127Z,87319.47
2023-04-27T05:30:08.554Z,87316.56
2023-04-27T05:32:35.927Z,87320.75
2023-04-27T05:35:04.219Z,87318.16
2023-04-27T05:37:31.643Z,87314.19
2023-04-27T05:39:58.976Z,87326.25
2023-04-27T05:42:26.187Z,87310.56
2023-04-27T05:44:53.675Z,87313.63
2023-04-27T05:47:21.257Z,87313.75
2023-04-27T05:49:52.756Z,87316.03
2023-04-27T05:52:21.156Z,87316.91
2023-04-27T05:54:49.762Z,87337.97
2023-04-27T05:57:17.618Z,87329.50
2023-04-27T05:59:45.148Z,87337.88
2023-04-27T06:02:12.823Z,87336.84
2023-04-27T06:04:40.215Z,87329.38
2023-04-27T06:07:16.206Z,87336.47
2023-04-27T06:09:43.589Z,87335.00
2023-04-27T06:12:10.954Z,87329.09
2023-04-27T06:14:38.128Z,87327.63
2023-04-27T06:17:05.778Z,87336.25
2023-04-27T06:19:33.321Z,87338.69
2023-04-27T06:22:00.546Z,87339.13
2023-04-27T06:24:27.824Z,87338.13
2023-04-27T06:26:55.035Z,87327.34
2023-04-27T06:29:22.474Z,87332.34
2023-04-27T06:31:49.781Z,87331.34
2023-04-27T06:34:16.934Z,87331.03
2023-04-27T06:36:44.083Z,87331.84
2023-04-27T06:39:11.559Z,87327.41
2023-04-27T06:41:38.816Z,87322.59
2023-04-27T06:44:06.141Z,87323.41
2023-04-27T06:46:33.998Z,87332.81
2023-04-27T06:49:01.284Z,87324.59
2023-04-27T06:51:28.471Z,87325.44
2023-04-27T06:53:55.819Z,87316.78
2023-04-27T06:56:23.048Z,87314.28
2023-04-27T06:58:50.260Z,87321.00
2023-04-27T07:01:17.527Z,87312.78
2023-04-27T07:03:44.809Z,87312.72
2023-04-27T07:06:12.011Z,87317.34
2023-04-27T07:08:39.473Z,87316.63
2023-04-27T07:11:06.667Z,87320.47
2023-04-27T07:13:33.826Z,87314.50
2023-04-27T07:16:01.304Z,87311.91
2023-04-27T07:18:28.836Z,87301.81
2023-04-27T07:20:56.285Z,87301.81
2023-04-27T07:23:24.302Z,87297.34
2023-04-27T07:25:51.886Z,87296.28
2023-04-27T07:28:19.147Z,87292.47
2023-04-27T07:30:46.423Z,87291.03
2023-04-27T07:33:13.898Z,87291.81
2023-04-27T07:35:41.147Z,87294.44
2023-04-27T07:38:08.549Z,87298.22
2023-04-27T07:40:35.935Z,87290.00
2023-04-27T07:43:03.161Z,87296.03
2023-04-27T07:45:30.996Z,87292.31
2023-04-27T07:48:00.223Z,87292.31
2023-04-27T07:50:29.299Z,87293.13
2023-04-27T07:52:57.273Z,87295.41
2023-04-27T07:55:26.094Z,87298.03
2023-04-27T07:57:54.721Z,87288.25
2023-04-27T08:00:23.460Z,87292.75
2023-04-27T08:02:53.536Z,87291.25
2023-04-27T08:05:21.948Z,87291.66
2023-04-27T08:07:50.029Z,87294.69
2023-04-27T08:10:17.376Z,87283.75
2023-04-27T08:12:44.596Z,87281.13
2023-04-27T08:15:12.144Z,87283.78
2023-04-27T08:17:39.704Z,87272.88
2023-04-27T08:20:09.216Z,87283.44
2023-04-27T08:22:36.511Z,87281.91
2023-04-27T08:25:04.211Z,87287.59
2023-04-27T08:27:31.473Z,87287.94
2023-04-27T08:29:59.011Z,87284.94
2023-04-27T08:32:26.628Z,87284.59
2023-04-27T08:34:53.897Z,87287.22
2023-04-27T08:37:21.128Z,87283.44
2023-04-27T08:39:48.868Z,87281.59
2023-04-27T08:42:16.304Z,87281.97
2023-04-27T08:44:44.958Z,87273.66
2023-04-27T08:47:12.745Z,87283.44
2023-04-27T08:49:40.072Z,87283.44
2023-04-27T08:52:17.547Z,87271.38
2023-04-27T08:54:45.087Z,87273.63
2023-04-27T08:57:14.938Z,87274.00
2023-04-27T08:59:42.679Z,87270.59
2023-04-27T09:02:22.421Z,87266.41
2023-04-27T09:04:49.800Z,87271.31
2023-04-27T09:07:18.417Z,87260.72
2023-04-27T09:09:46.030Z,87258.78
2023-04-27T09:12:21.760Z,87258.34
2023-04-27T09:15:01.639Z,87264.31
2023-04-27T09:17:30.428Z,87259.00
2023-04-27T09:20:11.450Z,87251.41
2023-04-27T09:22:52.131Z,87254.00
2023-04-27T09:25:33.543Z,87262.31
2023-04-27T09:28:01.821Z,87257.41
2023-04-27T09:30:30.099Z,87249.44
2023-04-27T09:33:01.726Z,87248.59
2023-04-27T09:35:32.716Z,87250.44
2023-04-27T09:38:01.114Z,87250.00
2023-04-27T09:40:30.158Z,87249.22
2023-04-27T09:43:00.952Z,87245.72
2023-04-27T09:45:28.665Z,87236.63
2023-04-27T09:47:56.207Z,87248.38
2023-04-27T09:50:23.644Z,87247.94
2023-04-27T09:52:50.973Z,87257.78
2023-04-27T09:56:01.792Z,87248.31
2023-04-27T09:59:17.992Z,87242.19
2023-04-27T10:01:54.939Z,87247.03
2023-04-27T10:04:49.908Z,87246.38
2023-04-27T10:07:18.067Z,87245.91
2023-04-27T10:09:50.908Z,87240.44
2023-04-27T10:12:27.926Z,87244.97
2023-04-27T10:14:58.677Z,87253.00
2023-04-27T10:17:35.547Z,87250.44
2023-04-27T10:20:06.431Z,87244.72
2023-04-27T10:22:48.166Z,87243.88
2023-04-27T10:25:26.243Z,87238.97
2023-04-27T10:28:00.145Z,87238.44
2023-04-27T10:30:34.405Z,87232.59
2023-04-27T10:33:12.185Z,87230.19
2023-04-27T10:35:43.081Z,87227.41
2023-04-27T10:38:16.792Z,87224.31
2023-04-27T10:41:00.443Z,87225.41
2023-04-27T10:43:31.637Z,87217.25
2023-04-27T10:46:15.671Z,87211.84
2023-04-27T10:48:44.651Z,87217.09
2023-04-27T10:51:17.386Z,87216.59
2023-04-27T10:53:44.985Z,87213.50
2023-04-27T10:56:16.475Z,87224.03
2023-04-27T10:58:48.829Z,87208.44
2023-04-27T11:01:26.975Z,87208.19
2023-04-27T11:04:02.708Z,87205.84
2023-04-27T11:06:31.687Z,87199.84
2023-04-27T11:08:59.712Z,87199.66
2023-04-27T11:11:26.894Z,87201.03
2023-04-27T11:13:54.974Z,87201.69
2023-04-27T11:16:23.407Z,87197.94
2023-04-27T11:18:50.884Z,87200.94
2023-04-27T11:21:22.443Z,87202.41
2023-04-27T11:23:49.943Z,87207.28
2023-04-27T11:26:23.305Z,87213.00
2023-04-27T11:29:06.077Z,87204.41
2023-04-27T11:31:49.149Z,87211.81
2023-04-27T11:34:24.079Z,87205.28
2023-04-27T11:37:17.413Z,87210.63
2023-04-27T11:39:46.370Z,87213.78
2023-04-27T11:42:26.470Z,87199.03
2023-04-27T11:45:05.623Z,87207.38
2023-04-27T11:47:34.791Z,87213.44
2023-04-27T11:50:07.181Z,87195.34
2023-04-27T11:52:36.724Z,87203.72
2023-04-27T11:55:05.419Z,87220.84
2023-04-27T11:57:36.303Z,87212.03
2023-04-27T12:00:06.063Z,87213.19
2023-04-27T12:02:33.444Z,87207.75
2023-04-27T12:05:01.138Z,87195.28
2023-04-27T12:07:28.960Z,87201.38
2023-04-27T12:09:58.368Z,87203.28
2023-04-27T12:12:26.811Z,87193.72
2023-04-27T12:14:54.643Z,87193.66
2023-04-27T12:17:27.841Z,87199.22
2023-04-27T12:19:58.418Z,87203.25
2023-04-27T12:22:25.779Z,87204.16
2023-04-27T12:24:53.339Z,87206.31
2023-04-27T12:27:20.875Z,87209.94
2023-04-27T12:29:58.451Z,87210.28
2023-04-27T12:32:26.206Z,87197.88
2023-04-27T12:34:57.845Z,87191.34
2023-04-27T12:37:28.075Z,87194.81
2023-04-27T12:39:55.399Z,87202.91
2023-04-27T12:42:23.426Z,87206.16
2023-04-27T12:44:53.454Z,87206.25
2023-04-27T12:47:43.142Z,87212.50
2023-04-27T12:50:09.891Z,87213.78
2023-04-27T12:52:37.639Z,87203.03
2023-04-27T12:55:05.474Z,87207.84
2023-04-27T12:57:32.657Z,87203.91
2023-04-27T13:00:01.803Z,87199.69
2023-04-27T13:02:29.921Z,87204.59
2023-04-27T13:04:57.329Z,87204.75
2023-04-27T13:07:24.848Z,87212.91
2023-04-27T13:09:52.013Z,87200.56
2023-04-27T13:12:19.301Z,87204.97
2023-04-27T13:14:46.576Z,87217.19
2023-04-27T13:17:13.827Z,87208.19
2023-04-27T13:19:41.087Z,87209.09
2023-04-27T13:22:08.294Z,87214.16
2023-04-27T13:24:36.123Z,87217.09
2023-04-27T13:27:03.877Z,87220.84
2023-04-27T13:29:31.534Z,87221.56
2023-04-27T13:31:59.097Z,87222.19
2023-04-27T13:34:26.336Z,87221.22
2023-04-27T13:36:53.665Z,87218.59
2023-04-27T13:39:20.855Z,87213.78
2023-04-27T13:41:48.376Z,87220.19
2023-04-27T13:44:15.862Z,87209.13
2023-04-27T13:46:43.360Z,87206.94
2023-04-27T13:49:10.711Z,87208.03
2023-04-27T13:51:37.937Z,87220.19
2023-04-27T13:54:05.269Z,87224.78
2023-04-27T13:56:32.560Z,87221.13
2023-04-27T13:58:59.822Z,87219.09
2023-04-27T14:01:28.395Z,87224.22
2023-04-27T14:03:55.976Z,87225.19
2023-04-27T14:06:23.406Z,87230.88
2023-04-27T14:08:50.752Z,87233.75
2023-04-27T14:11:17.978Z,87226.31
2023-04-27T14:13:45.365Z,87234.03
2023-04-27T14:16:12.569Z,87223.34
2023-04-27T14:18:39.978Z,87224.66
2023-04-27T14:21:07.498Z,87235.97
2023-04-27T14:23:35.074Z,87235.53
2023-04-27T14:26:02.313Z,87229.81
2023-04-27T14:28:29.526Z,87224.50
2023-04-27T14:30:56.760Z,87231.06
2023-04-27T14:33:24.097Z,87243.97
2023-04-27T14:35:51.315Z,87240.84
2023-04-27T14:38:18.529Z,87237.00
2023-04-27T14:40:45.778Z,87237.63
2023-04-27T14:43:13.169Z,87243.19
2023-04-27T14:45:50.816Z,87241.38
2023-04-27T14:48:19.995Z,87242.69
2023-04-27T14:50:47.321Z,87242.84
2023-04-27T14:53:15.217Z,87239.50
2023-04-27T14:55:42.401Z,87239.72
2023-04-27T14:58:09.628Z,87237.94
2023-04-27T15:00:36.871Z,87245.97
2023-04-27T15:03:04.596Z,87240.22
2023-04-27T15:05:31.981Z,87250.84
2023-04-27T15:07:59.314Z,87246.59
2023-04-27T15:10:26.497Z,87249.53
2023-04-27T15:12:53.737Z,87244.22
2023-04-27T15:15:20.959Z,87242.72
2023-04-27T15:17:48.324Z,87250.72
2023-04-27T15:20:15.832Z,87249.19
2023-04-27T15:22:43.145Z,87256.75
2023-04-27T15:25:10.545Z,87260.84
2023-04-27T15:27:38.422Z,87263.16
2023-04-27T15:30:06.747Z,87257.69
2023-04-27T15:32:34.465Z,87251.38
2023-04-27T15:35:01.748Z,87255.50
2023-04-27T15:37:29.647Z,87265.97
2023-04-27T15:39:57.239Z,87263.31
2023-04-27T15:42:26.301Z,87255.56
2023-04-27T15:44:53.746Z,87255.44
2023-04-27T15:47:20.981Z,87258.00
2023-04-27T15:49:57.090Z,87263.78
2023-04-27T15:52:26.273Z,87262.09
2023-04-27T15:54:53.656Z,87262.63
2023-04-27T15:57:20.910Z,87264.97
2023-04-27T15:59:48.079Z,87262.19
2023-04-27T16:02:15.531Z,87258.41
2023-04-27T16:04:42.874Z,87267.03
2023-04-27T16:07:10.117Z,87255.25
2023-04-27T16:09:37.748Z,87257.09
2023-04-27T16:12:05.455Z,87255.41
2023-04-27T16:14:32.850Z,87262.91
2023-04-27T16:17:02.660Z,87261.06
2023-04-27T16:19:30.335Z,87257.66
2023-04-27T16:21:57.603Z,87266.50
2023-04-27T16:24:25.772Z,87262.50
2023-04-27T16:26:53.214Z,87254.16
2023-04-27T16:29:20.490Z,87258.94
2023-04-27T16:31:50.538Z,87258.25
2023-04-27T16:34:17.834Z,87255.16
2023-04-27T16:36:45.162Z,87264.44
2023-04-27T16:39:12.592Z,87260.78
2023-04-27T16:41:40.189Z,87265.59
2023-04-27T16:44:07.370Z,87267.91
2023-04-27T16:46:34.730Z,87264.31
2023-04-27T16:49:02.018Z,87265.94
2023-04-27T16:51:29.356Z,87264.13
2023-04-27T16:53:58.332Z,87280.13
2023-04-27T16:56:31.491Z,87273.41
2023-04-27T16:58:59.024Z,87277.38
2023-04-27T17:01:26.439Z,87282.78
2023-04-27T17:03:53.944Z,87284.88
2023-04-27T17:06:24.184Z,87284.31
2023-04-27T17:08:52.588Z,87288.31
2023-04-27T17:11:19.876Z,87288.53
2023-04-27T17:13:49.134Z,87289.69
2023-04-27T17:16:17.830Z,87288.88
2023-04-27T17:18:46.986Z,87312.81
2023-04-27T17:21:14.793Z,87303.88
2023-04-27T17:23:42.169Z,87304.22
2023-04-27T17:26:09.537Z,87310.00
2023-04-27T17:28:36.687Z,87308.53
2023-04-27T17:31:03.920Z,87305.53
2023-04-27T17:33:31.600Z,87307.91
2023-04-27T17:35:59.219Z,87315.88
2023-04-27T17:38:27.214Z,87317.41
2023-04-27T17:40:54.533Z,87312.94
2023-04-27T17:43:21.763Z,87319.47
2023-04-27T17:45:49.029Z,87315.66
2023-04-27T17:48:16.348Z,87326.66
2023-04-27T17:50:44.009Z,87331.66
2023-04-27T17:53:11.346Z,87334.34
2023-04-27T17:55:38.592Z,87335.59
2023-04-27T17:58:05.876Z,87337.84
2023-04-27T18:00:33.253Z,87334.94
2023-04-27T18:03:00.795Z,87344.41
2023-04-27T18:05:28.357Z,87348.13
2023-04-27T18:07:55.801Z,87341.78
2023-04-27T18:10:23.238Z,87353.50
2023-04-27T18:12:50.492Z,87352.78
2023-04-27T18:15:17.693Z,87360.00
2023-04-27T18:17:45.006Z,87358.50
2023-04-27T18:20:12.637Z,87360.81
2023-04-27T18:22:40.610Z,87366.47
2023-04-27T18:25:09.911Z,87371.06
2023-04-27T18:27:37.571Z,87369.97
2023-04-27T18:30:06.146Z,87372.59
2023-04-27T18:32:34.806Z,87377.53
2023-04-27T18:35:02.656Z,87382.84
2023-04-27T18:37:30.313Z,87387.41
2023-04-27T18:39:57.991Z,87387.06
2023-04-27T18:42:25.531Z,87385.50
2023-04-27T18:44:53.642Z,87391.94
2023-04-27T18:47:21.261Z,87386.31
2023-04-27T18:49:49.036Z,87396.50
2023-04-27T18:52:16.215Z,87393.50
2023-04-27T18:54:43.542Z,87398.78
2023-04-27T18:57:11.013Z,87412.75
2023-04-27T18:59:38.946Z,87401.09
2023-04-27T19:02:07.849Z,87426.03
2023-04-27T19:04:35.966Z,87435.09
2023-04-27T19:07:03.691Z,87427.91
2023-04-27T19:09:31.039Z,87437.34
2023-04-27T19:12:02.783Z,87442.25
2023-04-27T19:14:31.916Z,87434.72
2023-04-27T19:16:59.236Z,87435.09
2023-04-27T19:19:26.510Z,87447.19
2023-04-27T19:21:54.446Z,87448.31
2023-04-27T19:24:21.742Z,87446.78
2023-04-27T19:26:49.024Z,87452.84
2023-04-27T19:29:16.977Z,87444.16
2023-04-27T19:31:44.632Z,87447.94
2023-04-27T19:34:12.162Z,87450.94
2023-04-27T19:36:39.777Z,87446.03
2023-04-27T19:39:06.940Z,87452.47
2023-04-27T19:41:34.373Z,87449.81
2023-04-27T19:44:01.530Z,87454.72
2023-04-27T19:46:28.983Z,87458.50
2023-04-27T19:48:56.226Z,87457.75
2023-04-27T19:51:24.126Z,87465.31
2023-04-27T19:53:51.564Z,87466.81
2023-04-27T19:56:19.017Z,87475.88
2023-04-27T19:58:46.249Z,87476.25
2023-04-27T20:01:13.640Z,87477.38
2023-04-27T20:03:40.990Z,87479.69
2023-04-27T20:06:08.718Z,87484.19
2023-04-27T20:08:36.125Z,87486.09
2023-04-27T20:11:03.389Z,87490.97
2023-04-27T20:13:30.583Z,87495.16
2023-04-27T20:15:57.811Z,87486.47
2023-04-27T20:18:25.145Z,87485.34
2023-04-27T20:20:52.304Z,87489.47
2023-04-27T20:23:19.525Z,87492.13
2023-04-27T20:25:46.727Z,87497.03
2023-04-27T20:28:14.005Z,87500.81
2023-04-27T20:30:41.417Z,87500.03
2023-04-27T20:33:08.761Z,87508.38
2023-04-27T20:35:36.017Z,87516.66
2023-04-27T20:38:03.456Z,87500.81
2023-04-27T20:40:30.667Z,87503.06
2023-04-27T20:42:58.207Z,87495.13
2023-04-27T20:45:25.524Z,87503.06
2023-04-27T20:47:53.018Z,87507.97
2023-04-27T20:50:20.788Z,87508.31
2023-04-27T20:52:48.422Z,87501.94
2023-04-27T20:55:16.256Z,87510.97
2023-04-27T20:57:44.014Z,87507.19
2023-04-27T21:00:12.096Z,87509.09
2023-04-27T21:02:39.832Z,87514.34
2023-04-27T21:05:07.602Z,87513.25
2023-04-27T21:07:35.419Z,87521.13
2023-04-27T21:10:03.146Z,87518.84
2023-04-27T21:12:30.700Z,87520.00
2023-04-27T21:14:58.331Z,87513.19
2023-04-27T21:17:25.914Z,87512.81
2023-04-27T21:19:53.632Z,87512.06
2023-04-27T21:22:21.186Z,87517.72
2023-04-27T21:24:48.851Z,87514.69
2023-04-27T21:27:16.374Z,87508.66
2023-04-27T21:29:44.077Z,87512.81
2023-04-27T21:32:12.372Z,87504.88
2023-04-27T21:34:39.585Z,87505.63
2023-04-27T21:37:06.784Z,87505.97
2023-04-27T21:39:33.977Z,87509.34
2023-04-27T21:42:01.208Z,87514.97
2023-04-27T21:44:28.424Z,87509.69
2023-04-27T21:46:55.852Z,87505.16
2023-04-27T21:49:23.196Z,87503.63
2023-04-27T21:51:50.609Z,87500.63
2023-04-27T21:54:17.935Z,87502.50
2023-04-27T21:56:45.180Z,87506.25
2023-04-27T21:59:12.673Z,87510.00
2023-04-27T22:01:39.916Z,87505.88
2023-04-27T22:04:07.397Z,87507.38
2023-04-27T22:06:34.700Z,87515.28
2023-04-27T22:09:02.309Z,87507.41
2023-04-27T22:11:29.487Z,87508.50
2023-04-27T22:13:56.763Z,87508.88
2023-04-27T22:16:24.055Z,87508.88
2023-04-27T22:18:51.268Z,87519.41
2023-04-27T22:21:18.638Z,87514.13
2023-04-27T22:23:47.696Z,87520.19
2023-04-27T22:26:15.116Z,87523.19
2023-04-27T22:28:42.340Z,87522.09
2023-04-27T22:31:09.594Z,87531.53
2023-04-27T22:33:37.023Z,87531.56
2023-04-27T22:36:04.561Z,87532.31
2023-04-27T22:38:32.165Z,87536.06
2023-04-27T22:40:59.395Z,87539.13
2023-04-27T22:43:26.663Z,87534.59
2023-04-27T22:45:53.876Z,87534.59
2023-04-27T22:48:21.092Z,87537.22
2023-04-27T22:50:48.351Z,87536.84
2023-04-27T22:53:15.682Z,87533.84
2023-04-27T22:55:43.186Z,87533.81
2023-04-27T22:58:10.402Z,87531.91
2023-04-27T23:00:37.635Z,87534.97
2023-04-27T23:03:05.084Z,87533.06
2023-04-27T23:05:32.932Z,87534.16
2023-04-27T23:08:00.227Z,87532.28
2023-04-27T23:10:27.425Z,87526.59
2023-04-27T23:12:54.594Z,87528.84
2023-04-27T23:15:21.775Z,87533.00
2023-04-27T23:17:49.035Z,87533.38
2023-04-27T23:20:27.496Z,87525.81
2023-04-27T23:22:55.817Z,87524.66
2023-04-27T23:25:23.330Z,87531.03
2023-04-27T23:27:52.251Z,87526.09
2023-04-27T23:30:21.471Z,87533.97
2023-04-27T23:32:48.893Z,87539.59
2023-04-27T23:35:16.364Z,87548.25
2023-04-27T23:37:43.789Z,87547.13
2023-04-27T23:40:11.498Z,87539.91
2023-04-27T23:42:39.142Z,87544.06
2023-04-27T23:45:07.129Z,87538.38
2023-04-27T23:47:34.710Z,87533.84
2023-04-27T23:50:02.374Z,87540.22
2023-04-27T23:52:30.077Z,87540.22
2023-04-27T23:55:00.679Z,87543.19
2023-04-27T23:57:28.208Z,87540.88
2023-04-27T23:59:55.696Z,87537.16
